sensor_id;sensor_type;location;lat;lon;timestamp;P1;durP1;ratioP1;P2;durP2;ratioP2
28629;SDS011;15817;42.130;24.762;2023-02-28T00:00:40;14.05;;;6.15;;
28629;SDS011;15817;42.130;24.762;2023-02-28T00:03:08;12.18;;;5.80;;
28629;SDS011;15817;42.130;24.762;2023-02-28T00:05:37;14.80;;;5.80;;
28629;SDS011;15817;42.130;24.762;2023-02-28T00:08:12;12.20;;;5.55;;
28629;SDS011;15817;42.130;24.762;2023-02-28T00:10:59;15.13;;;5.55;;
28629;SDS011;15817;42.130;24.762;2023-02-28T00:13:56;12.15;;;5.35;;
28629;SDS011;15817;42.130;24.762;2023-02-28T00:16:22;14.77;;;6.22;;
28629;SDS011;15817;42.130;24.762;2023-02-28T00:18:49;11.60;;;5.32;;
28629;SDS011;15817;42.130;24.762;2023-02-28T00:21:16;13.85;;;6.10;;
28629;SDS011;15817;42.130;24.762;2023-02-28T00:23:42;18.50;;;6.43;;
28629;SDS011;15817;42.130;24.762;2023-02-28T00:26:09;14.05;;;5.90;;
28629;SDS011;15817;42.130;24.762;2023-02-28T00:28:36;10.60;;;5.20;;
28629;SDS011;15817;42.130;24.762;2023-02-28T00:31:04;15.23;;;5.60;;
28629;SDS011;15817;42.130;24.762;2023-02-28T00:33:35;15.15;;;5.65;;
28629;SDS011;15817;42.130;24.762;2023-02-28T00:36:04;13.43;;;5.82;;
28629;SDS011;15817;42.130;24.762;2023-02-28T00:38:37;15.02;;;5.85;;
28629;SDS011;15817;42.130;24.762;2023-02-28T00:41:04;11.10;;;5.32;;
28629;SDS011;15817;42.130;24.762;2023-02-28T00:43:32;10.52;;;5.75;;
28629;SDS011;15817;42.130;24.762;2023-02-28T00:45:59;13.23;;;5.97;;
28629;SDS011;15817;42.130;24.762;2023-02-28T00:48:25;15.38;;;5.68;;
28629;SDS011;15817;42.130;24.762;2023-02-28T00:50:53;16.25;;;5.32;;
28629;SDS011;15817;42.130;24.762;2023-02-28T00:53:19;14.18;;;5.30;;
28629;SDS011;15817;42.130;24.762;2023-02-28T00:55:48;12.02;;;5.30;;
28629;SDS011;15817;42.130;24.762;2023-02-28T00:58:15;17.67;;;6.55;;
28629;SDS011;15817;42.130;24.762;2023-02-28T01:00:47;13.70;;;6.53;;
28629;SDS011;15817;42.130;24.762;2023-02-28T01:03:16;14.93;;;6.55;;
28629;SDS011;15817;42.130;24.762;2023-02-28T01:05:42;11.70;;;5.90;;
28629;SDS011;15817;42.130;24.762;2023-02-28T01:08:11;13.30;;;5.78;;
28629;SDS011;15817;42.130;24.762;2023-02-28T01:10:48;15.25;;;5.75;;
28629;SDS011;15817;42.130;24.762;2023-02-28T01:13:37;12.85;;;5.72;;
28629;SDS011;15817;42.130;24.762;2023-02-28T01:16:03;10.48;;;5.60;;
28629;SDS011;15817;42.130;24.762;2023-02-28T01:18:33;13.02;;;5.63;;
28629;SDS011;15817;42.130;24.762;2023-02-28T01:21:05;12.10;;;5.65;;
28629;SDS011;15817;42.130;24.762;2023-02-28T01:23:35;14.73;;;5.75;;
28629;SDS011;15817;42.130;24.762;2023-02-28T01:26:09;13.20;;;5.93;;
28629;SDS011;15817;42.130;24.762;2023-02-28T01:28:45;12.75;;;5.57;;
28629;SDS011;15817;42.130;24.762;2023-02-28T01:31:14;13.85;;;6.10;;
28629;SDS011;15817;42.130;24.762;2023-02-28T01:33:43;12.55;;;5.57;;
28629;SDS011;15817;42.130;24.762;2023-02-28T01:36:14;15.00;;;5.40;;
28629;SDS011;15817;42.130;24.762;2023-02-28T01:38:41;9.48;;;4.97;;
28629;SDS011;15817;42.130;24.762;2023-02-28T01:41:08;11.95;;;5.53;;
28629;SDS011;15817;42.130;24.762;2023-02-28T01:46:14;10.98;;;6.30;;
28629;SDS011;15817;42.130;24.762;2023-02-28T01:51:26;22.17;;;8.05;;
28629;SDS011;15817;42.130;24.762;2023-02-28T01:53:59;23.48;;;8.82;;
28629;SDS011;15817;42.130;24.762;2023-02-28T01:56:32;20.42;;;8.77;;
28629;SDS011;15817;42.130;24.762;2023-02-28T01:59:04;24.73;;;10.07;;
28629;SDS011;15817;42.130;24.762;2023-02-28T02:01:30;23.23;;;9.57;;
28629;SDS011;15817;42.130;24.762;2023-02-28T02:04:01;22.42;;;9.93;;
28629;SDS011;15817;42.130;24.762;2023-02-28T02:06:38;26.05;;;9.23;;
28629;SDS011;15817;42.130;24.762;2023-02-28T02:09:15;20.13;;;8.68;;
28629;SDS011;15817;42.130;24.762;2023-02-28T02:11:42;23.92;;;7.88;;
28629;SDS011;15817;42.130;24.762;2023-02-28T02:19:34;19.52;;;7.95;;
28629;SDS011;15817;42.130;24.762;2023-02-28T02:28:09;21.65;;;7.72;;
28629;SDS011;15817;42.130;24.762;2023-02-28T02:36:24;19.05;;;7.20;;
28629;SDS011;15817;42.130;24.762;2023-02-28T02:41:39;18.00;;;7.50;;
28629;SDS011;15817;42.130;24.762;2023-02-28T02:46:48;13.05;;;7.10;;
28629;SDS011;15817;42.130;24.762;2023-02-28T02:49:22;13.23;;;7.30;;
28629;SDS011;15817;42.130;24.762;2023-02-28T02:51:54;15.63;;;6.95;;
28629;SDS011;15817;42.130;24.762;2023-02-28T02:54:24;21.17;;;6.40;;
28629;SDS011;15817;42.130;24.762;2023-02-28T02:56:55;17.38;;;7.40;;
28629;SDS011;15817;42.130;24.762;2023-02-28T02:59:27;13.45;;;6.75;;
28629;SDS011;15817;42.130;24.762;2023-02-28T03:02:01;14.32;;;7.72;;
28629;SDS011;15817;42.130;24.762;2023-02-28T03:04:43;17.20;;;7.13;;
28629;SDS011;15817;42.130;24.762;2023-02-28T03:07:16;18.70;;;7.75;;
28629;SDS011;15817;42.130;24.762;2023-02-28T03:09:50;16.40;;;7.82;;
28629;SDS011;15817;42.130;24.762;2023-02-28T03:12:20;17.05;;;7.63;;
28629;SDS011;15817;42.130;24.762;2023-02-28T03:28:31;16.98;;;8.73;;
28629;SDS011;15817;42.130;24.762;2023-02-28T03:33:59;13.93;;;8.60;;
28629;SDS011;15817;42.130;24.762;2023-02-28T03:36:38;16.70;;;8.52;;
28629;SDS011;15817;42.130;24.762;2023-02-28T03:39:19;20.52;;;10.15;;
28629;SDS011;15817;42.130;24.762;2023-02-28T03:41:54;15.32;;;9.52;;
28629;SDS011;15817;42.130;24.762;2023-02-28T03:52:57;17.50;;;10.45;;
28629;SDS011;15817;42.130;24.762;2023-02-28T03:55:34;17.27;;;9.88;;
28629;SDS011;15817;42.130;24.762;2023-02-28T03:58:38;13.15;;;9.43;;
28629;SDS011;15817;42.130;24.762;2023-02-28T04:01:07;16.83;;;9.65;;
28629;SDS011;15817;42.130;24.762;2023-02-28T04:04:09;17.10;;;9.68;;
28629;SDS011;15817;42.130;24.762;2023-02-28T04:06:50;16.42;;;9.63;;
28629;SDS011;15817;42.130;24.762;2023-02-28T04:09:36;16.45;;;9.13;;
28629;SDS011;15817;42.130;24.762;2023-02-28T04:12:08;13.90;;;9.18;;
28629;SDS011;15817;42.130;24.762;2023-02-28T04:14:34;13.65;;;8.20;;
28629;SDS011;15817;42.130;24.762;2023-02-28T04:17:08;18.95;;;9.45;;
28629;SDS011;15817;42.130;24.762;2023-02-28T04:19:37;16.35;;;8.38;;
28629;SDS011;15817;42.130;24.762;2023-02-28T04:22:03;15.77;;;8.73;;
28629;SDS011;15817;42.130;24.762;2023-02-28T04:24:29;14.52;;;8.18;;
28629;SDS011;15817;42.130;24.762;2023-02-28T04:27:00;15.77;;;8.52;;
28629;SDS011;15817;42.130;24.762;2023-02-28T04:29:30;17.92;;;9.02;;
28629;SDS011;15817;42.130;24.762;2023-02-28T04:32:05;16.13;;;8.90;;
28629;SDS011;15817;42.130;24.762;2023-02-28T04:34:33;14.32;;;8.30;;
28629;SDS011;15817;42.130;24.762;2023-02-28T04:37:02;14.77;;;8.27;;
28629;SDS011;15817;42.130;24.762;2023-02-28T04:39:28;11.73;;;8.82;;
28629;SDS011;15817;42.130;24.762;2023-02-28T04:41:57;12.50;;;8.63;;
28629;SDS011;15817;42.130;24.762;2023-02-28T04:44:25;15.85;;;8.68;;
28629;SDS011;15817;42.130;24.762;2023-02-28T04:46:51;12.98;;;7.90;;
28629;SDS011;15817;42.130;24.762;2023-02-28T04:49:20;11.77;;;8.82;;
28629;SDS011;15817;42.130;24.762;2023-02-28T04:51:57;12.77;;;8.75;;
28629;SDS011;15817;42.130;24.762;2023-02-28T04:54:23;11.07;;;8.18;;
28629;SDS011;15817;42.130;24.762;2023-02-28T04:56:53;11.88;;;7.53;;
28629;SDS011;15817;42.130;24.762;2023-02-28T04:59:20;12.88;;;8.45;;
28629;SDS011;15817;42.130;24.762;2023-02-28T05:01:48;11.80;;;8.10;;
28629;SDS011;15817;42.130;24.762;2023-02-28T05:04:24;11.90;;;8.68;;
28629;SDS011;15817;42.130;24.762;2023-02-28T05:06:57;12.57;;;7.90;;
28629;SDS011;15817;42.130;24.762;2023-02-28T05:09:30;14.25;;;8.40;;
28629;SDS011;15817;42.130;24.762;2023-02-28T05:12:36;14.77;;;8.85;;
28629;SDS011;15817;42.130;24.762;2023-02-28T05:15:04;13.10;;;8.30;;
28629;SDS011;15817;42.130;24.762;2023-02-28T05:17:30;13.95;;;8.20;;
28629;SDS011;15817;42.130;24.762;2023-02-28T05:19:56;13.25;;;8.60;;
28629;SDS011;15817;42.130;24.762;2023-02-28T05:22:25;11.80;;;7.88;;
28629;SDS011;15817;42.130;24.762;2023-02-28T05:24:51;14.05;;;8.95;;
28629;SDS011;15817;42.130;24.762;2023-02-28T05:27:19;14.85;;;8.48;;
28629;SDS011;15817;42.130;24.762;2023-02-28T05:29:48;13.50;;;7.95;;
28629;SDS011;15817;42.130;24.762;2023-02-28T05:32:14;16.13;;;9.10;;
28629;SDS011;15817;42.130;24.762;2023-02-28T05:34:42;11.05;;;8.02;;
28629;SDS011;15817;42.130;24.762;2023-02-28T05:37:20;13.05;;;8.60;;
28629;SDS011;15817;42.130;24.762;2023-02-28T05:39:54;16.17;;;9.23;;
28629;SDS011;15817;42.130;24.762;2023-02-28T05:42:22;15.77;;;8.98;;
28629;SDS011;15817;42.130;24.762;2023-02-28T05:44:54;17.15;;;10.70;;
28629;SDS011;15817;42.130;24.762;2023-02-28T05:47:30;13.93;;;9.18;;
28629;SDS011;15817;42.130;24.762;2023-02-28T05:49:59;15.23;;;9.77;;
28629;SDS011;15817;42.130;24.762;2023-02-28T05:52:26;16.20;;;9.25;;
28629;SDS011;15817;42.130;24.762;2023-02-28T05:55:00;15.52;;;9.13;;
28629;SDS011;15817;42.130;24.762;2023-02-28T05:57:34;16.80;;;9.23;;
28629;SDS011;15817;42.130;24.762;2023-02-28T06:00:18;16.52;;;10.10;;
28629;SDS011;15817;42.130;24.762;2023-02-28T06:02:47;17.15;;;10.00;;
28629;SDS011;15817;42.130;24.762;2023-02-28T06:05:17;12.93;;;9.52;;
28629;SDS011;15817;42.130;24.762;2023-02-28T06:07:50;13.93;;;9.50;;
28629;SDS011;15817;42.130;24.762;2023-02-28T06:10:16;16.23;;;9.55;;
28629;SDS011;15817;42.130;24.762;2023-02-28T06:12:42;15.13;;;9.63;;
28629;SDS011;15817;42.130;24.762;2023-02-28T06:15:12;16.27;;;9.13;;
28629;SDS011;15817;42.130;24.762;2023-02-28T06:17:48;14.50;;;9.68;;
28629;SDS011;15817;42.130;24.762;2023-02-28T06:20:17;15.35;;;9.55;;
28629;SDS011;15817;42.130;24.762;2023-02-28T06:23:29;17.23;;;10.70;;
28629;SDS011;15817;42.130;24.762;2023-02-28T06:26:42;17.10;;;10.65;;
28629;SDS011;15817;42.130;24.762;2023-02-28T06:29:10;19.35;;;10.73;;
28629;SDS011;15817;42.130;24.762;2023-02-28T06:31:39;14.25;;;9.88;;
28629;SDS011;15817;42.130;24.762;2023-02-28T06:34:07;15.88;;;11.05;;
28629;SDS011;15817;42.130;24.762;2023-02-28T06:36:37;17.90;;;11.77;;
28629;SDS011;15817;42.130;24.762;2023-02-28T06:39:07;17.58;;;10.85;;
28629;SDS011;15817;42.130;24.762;2023-02-28T06:41:36;16.08;;;10.65;;
28629;SDS011;15817;42.130;24.762;2023-02-28T06:44:09;18.30;;;11.43;;
28629;SDS011;15817;42.130;24.762;2023-02-28T06:46:45;16.52;;;10.45;;
28629;SDS011;15817;42.130;24.762;2023-02-28T06:49:22;18.63;;;11.18;;
28629;SDS011;15817;42.130;24.762;2023-02-28T06:51:53;15.98;;;11.27;;
28629;SDS011;15817;42.130;24.762;2023-02-28T06:54:30;16.83;;;10.75;;
28629;SDS011;15817;42.130;24.762;2023-02-28T06:56:57;18.25;;;10.70;;
28629;SDS011;15817;42.130;24.762;2023-02-28T06:59:23;21.63;;;10.45;;
28629;SDS011;15817;42.130;24.762;2023-02-28T07:01:52;18.27;;;10.82;;
28629;SDS011;15817;42.130;24.762;2023-02-28T07:04:26;20.40;;;11.43;;
28629;SDS011;15817;42.130;24.762;2023-02-28T07:06:53;17.20;;;11.60;;
28629;SDS011;15817;42.130;24.762;2023-02-28T07:09:22;18.77;;;11.52;;
28629;SDS011;15817;42.130;24.762;2023-02-28T07:11:48;20.85;;;12.13;;
28629;SDS011;15817;42.130;24.762;2023-02-28T07:14:14;17.23;;;12.07;;
28629;SDS011;15817;42.130;24.762;2023-02-28T07:16:50;22.00;;;11.90;;
28629;SDS011;15817;42.130;24.762;2023-02-28T07:19:16;21.80;;;12.38;;
28629;SDS011;15817;42.130;24.762;2023-02-28T07:21:44;16.67;;;11.77;;
28629;SDS011;15817;42.130;24.762;2023-02-28T07:24:12;14.38;;;10.45;;
28629;SDS011;15817;42.130;24.762;2023-02-28T07:26:41;17.88;;;11.40;;
28629;SDS011;15817;42.130;24.762;2023-02-28T07:29:12;22.90;;;11.45;;
28629;SDS011;15817;42.130;24.762;2023-02-28T07:31:43;22.77;;;11.07;;
28629;SDS011;15817;42.130;24.762;2023-02-28T07:34:19;21.33;;;11.90;;
28629;SDS011;15817;42.130;24.762;2023-02-28T07:36:45;19.75;;;12.45;;
28629;SDS011;15817;42.130;24.762;2023-02-28T07:39:20;21.85;;;12.88;;
28629;SDS011;15817;42.130;24.762;2023-02-28T07:41:55;23.23;;;13.32;;
28629;SDS011;15817;42.130;24.762;2023-02-28T07:44:43;22.95;;;14.90;;
28629;SDS011;15817;42.130;24.762;2023-02-28T07:47:18;21.13;;;14.00;;
28629;SDS011;15817;42.130;24.762;2023-02-28T07:49:50;22.42;;;14.05;;
28629;SDS011;15817;42.130;24.762;2023-02-28T07:52:19;35.22;;;13.70;;
28629;SDS011;15817;42.130;24.762;2023-02-28T07:54:53;23.60;;;13.90;;
28629;SDS011;15817;42.130;24.762;2023-02-28T07:57:30;22.55;;;13.85;;
28629;SDS011;15817;42.130;24.762;2023-02-28T08:00:32;21.45;;;13.35;;
28629;SDS011;15817;42.130;24.762;2023-02-28T08:03:17;25.33;;;14.02;;
28629;SDS011;15817;42.130;24.762;2023-02-28T08:05:51;20.88;;;13.13;;
28629;SDS011;15817;42.130;24.762;2023-02-28T08:08:17;23.95;;;13.93;;
28629;SDS011;15817;42.130;24.762;2023-02-28T08:10:50;25.40;;;13.98;;
28629;SDS011;15817;42.130;24.762;2023-02-28T08:13:16;23.20;;;13.88;;
28629;SDS011;15817;42.130;24.762;2023-02-28T08:16:02;23.85;;;13.75;;
28629;SDS011;15817;42.130;24.762;2023-02-28T08:18:28;20.95;;;14.05;;
28629;SDS011;15817;42.130;24.762;2023-02-28T08:20:57;21.40;;;13.32;;
28629;SDS011;15817;42.130;24.762;2023-02-28T08:23:24;23.17;;;13.40;;
28629;SDS011;15817;42.130;24.762;2023-02-28T08:25:56;24.48;;;12.90;;
28629;SDS011;15817;42.130;24.762;2023-02-28T08:28:22;21.70;;;13.05;;
28629;SDS011;15817;42.130;24.762;2023-02-28T08:30:55;21.02;;;13.55;;
28629;SDS011;15817;42.130;24.762;2023-02-28T08:33:24;17.98;;;12.30;;
28629;SDS011;15817;42.130;24.762;2023-02-28T08:35:55;23.40;;;13.52;;
28629;SDS011;15817;42.130;24.762;2023-02-28T08:38:22;24.50;;;13.05;;
28629;SDS011;15817;42.130;24.762;2023-02-28T08:41:00;23.13;;;13.25;;
28629;SDS011;15817;42.130;24.762;2023-02-28T08:43:31;23.52;;;13.63;;
28629;SDS011;15817;42.130;24.762;2023-02-28T08:46:12;22.55;;;15.10;;
28629;SDS011;15817;42.130;24.762;2023-02-28T08:48:42;27.88;;;14.98;;
28629;SDS011;15817;42.130;24.762;2023-02-28T08:51:13;22.05;;;14.38;;
28629;SDS011;15817;42.130;24.762;2023-02-28T08:53:53;24.38;;;14.95;;
28629;SDS011;15817;42.130;24.762;2023-02-28T08:56:27;21.92;;;14.48;;
28629;SDS011;15817;42.130;24.762;2023-02-28T08:59:01;23.38;;;15.40;;
28629;SDS011;15817;42.130;24.762;2023-02-28T09:01:29;30.13;;;13.90;;
28629;SDS011;15817;42.130;24.762;2023-02-28T09:03:56;23.42;;;13.82;;
28629;SDS011;15817;42.130;24.762;2023-02-28T09:06:24;25.08;;;16.00;;
28629;SDS011;15817;42.130;24.762;2023-02-28T09:09:03;23.10;;;14.35;;
28629;SDS011;15817;42.130;24.762;2023-02-28T09:11:35;19.63;;;13.18;;
28629;SDS011;15817;42.130;24.762;2023-02-28T09:14:27;18.95;;;13.43;;
28629;SDS011;15817;42.130;24.762;2023-02-28T09:16:52;25.92;;;15.00;;
28629;SDS011;15817;42.130;24.762;2023-02-28T09:19:18;28.17;;;15.40;;
28629;SDS011;15817;42.130;24.762;2023-02-28T09:21:43;23.83;;;15.45;;
28629;SDS011;15817;42.130;24.762;2023-02-28T09:24:09;18.92;;;14.70;;
28629;SDS011;15817;42.130;24.762;2023-02-28T09:26:39;19.15;;;15.02;;
28629;SDS011;15817;42.130;24.762;2023-02-28T09:29:05;22.98;;;15.75;;
28629;SDS011;15817;42.130;24.762;2023-02-28T09:31:42;25.55;;;16.08;;
28629;SDS011;15817;42.130;24.762;2023-02-28T09:34:11;24.75;;;16.60;;
28629;SDS011;15817;42.130;24.762;2023-02-28T09:36:37;23.92;;;15.82;;
28629;SDS011;15817;42.130;24.762;2023-02-28T09:39:14;24.45;;;16.35;;
28629;SDS011;15817;42.130;24.762;2023-02-28T09:41:44;23.98;;;16.17;;
28629;SDS011;15817;42.130;24.762;2023-02-28T09:44:17;24.20;;;17.33;;
28629;SDS011;15817;42.130;24.762;2023-02-28T09:49:39;25.83;;;15.40;;
28629;SDS011;15817;42.130;24.762;2023-02-28T09:52:16;22.30;;;16.25;;
28629;SDS011;15817;42.130;24.762;2023-02-28T09:54:48;22.38;;;16.60;;
28629;SDS011;15817;42.130;24.762;2023-02-28T10:00:00;24.33;;;15.23;;
28629;SDS011;15817;42.130;24.762;2023-02-28T10:02:53;20.55;;;14.32;;
28629;SDS011;15817;42.130;24.762;2023-02-28T10:05:27;22.60;;;14.60;;
28629;SDS011;15817;42.130;24.762;2023-02-28T10:10:55;21.23;;;14.88;;
28629;SDS011;15817;42.130;24.762;2023-02-28T10:16:14;20.95;;;14.90;;
28629;SDS011;15817;42.130;24.762;2023-02-28T10:18:47;21.35;;;14.80;;
28629;SDS011;15817;42.130;24.762;2023-02-28T10:21:25;21.98;;;15.18;;
28629;SDS011;15817;42.130;24.762;2023-02-28T10:29:52;31.60;;;17.50;;
28629;SDS011;15817;42.130;24.762;2023-02-28T10:32:27;22.88;;;16.77;;
28629;SDS011;15817;42.130;24.762;2023-02-28T10:37:58;33.50;;;18.70;;
28629;SDS011;15817;42.130;24.762;2023-02-28T10:40:43;24.50;;;17.00;;
28629;SDS011;15817;42.130;24.762;2023-02-28T10:46:43;33.70;;;17.73;;
28629;SDS011;15817;42.130;24.762;2023-02-28T10:49:14;27.88;;;16.90;;
28629;SDS011;15817;42.130;24.762;2023-02-28T10:51:52;25.98;;;17.90;;
28629;SDS011;15817;42.130;24.762;2023-02-28T10:57:56;21.83;;;16.55;;
28629;SDS011;15817;42.130;24.762;2023-02-28T11:01:01;22.67;;;15.93;;
28629;SDS011;15817;42.130;24.762;2023-02-28T11:03:51;24.42;;;16.13;;
28629;SDS011;15817;42.130;24.762;2023-02-28T11:09:37;27.00;;;16.50;;
28629;SDS011;15817;42.130;24.762;2023-02-28T11:15:34;23.13;;;15.60;;
28629;SDS011;15817;42.130;24.762;2023-02-28T11:24:37;30.60;;;18.55;;
28629;SDS011;15817;42.130;24.762;2023-02-28T11:30:29;24.67;;;18.58;;
28629;SDS011;15817;42.130;24.762;2023-02-28T11:33:29;27.65;;;16.88;;
28629;SDS011;15817;42.130;24.762;2023-02-28T11:36:18;23.00;;;16.30;;
28629;SDS011;15817;42.130;24.762;2023-02-28T11:38:44;21.17;;;17.25;;
28629;SDS011;15817;42.130;24.762;2023-02-28T11:44:05;23.17;;;17.70;;
28629;SDS011;15817;42.130;24.762;2023-02-28T11:47:05;24.60;;;18.55;;
28629;SDS011;15817;42.130;24.762;2023-02-28T12:03:43;31.35;;;20.67;;
28629;SDS011;15817;42.130;24.762;2023-02-28T12:28:20;34.10;;;24.17;;
28629;SDS011;15817;42.130;24.762;2023-02-28T12:30:51;35.25;;;23.55;;
28629;SDS011;15817;42.130;24.762;2023-02-28T12:33:24;32.05;;;22.95;;
28629;SDS011;15817;42.130;24.762;2023-02-28T12:36:13;32.95;;;22.23;;
28629;SDS011;15817;42.130;24.762;2023-02-28T12:38:48;34.35;;;24.52;;
28629;SDS011;15817;42.130;24.762;2023-02-28T12:47:13;34.90;;;24.92;;
28629;SDS011;15817;42.130;24.762;2023-02-28T12:50:00;33.72;;;22.98;;
28629;SDS011;15817;42.130;24.762;2023-02-28T12:55:30;40.42;;;23.70;;
28629;SDS011;15817;42.130;24.762;2023-02-28T12:58:41;30.58;;;22.20;;
28629;SDS011;15817;42.130;24.762;2023-02-28T13:10:46;30.50;;;22.50;;
28629;SDS011;15817;42.130;24.762;2023-02-28T13:13:21;31.65;;;24.30;;
28629;SDS011;15817;42.130;24.762;2023-02-28T13:16:10;33.90;;;21.73;;
28629;SDS011;15817;42.130;24.762;2023-02-28T13:29:02;35.83;;;23.02;;
28629;SDS011;15817;42.130;24.762;2023-02-28T13:34:46;32.50;;;21.52;;
28629;SDS011;15817;42.130;24.762;2023-02-28T13:39:47;31.65;;;22.40;;
28629;SDS011;15817;42.130;24.762;2023-02-28T13:42:34;32.17;;;23.42;;
28629;SDS011;15817;42.130;24.762;2023-02-28T13:47:39;29.20;;;22.13;;
28629;SDS011;15817;42.130;24.762;2023-02-28T13:55:48;33.72;;;23.65;;
28629;SDS011;15817;42.130;24.762;2023-02-28T14:06:50;32.78;;;22.25;;
28629;SDS011;15817;42.130;24.762;2023-02-28T14:18:38;23.85;;;18.95;;
28629;SDS011;15817;42.130;24.762;2023-02-28T14:21:27;27.55;;;18.95;;
28629;SDS011;15817;42.130;24.762;2023-02-28T14:36:27;23.10;;;16.52;;
28629;SDS011;15817;42.130;24.762;2023-02-28T14:39:07;25.15;;;15.98;;
28629;SDS011;15817;42.130;24.762;2023-02-28T14:41:45;20.38;;;15.80;;
28629;SDS011;15817;42.130;24.762;2023-02-28T14:47:14;18.33;;;14.45;;
28629;SDS011;15817;42.130;24.762;2023-02-28T14:49:55;19.83;;;14.35;;
28629;SDS011;15817;42.130;24.762;2023-02-28T14:52:56;16.15;;;13.45;;
28629;SDS011;15817;42.130;24.762;2023-02-28T14:56:19;20.98;;;14.80;;
28629;SDS011;15817;42.130;24.762;2023-02-28T14:58:52;18.48;;;13.70;;
28629;SDS011;15817;42.130;24.762;2023-02-28T15:01:26;19.33;;;14.30;;
28629;SDS011;15817;42.130;24.762;2023-02-28T15:04:00;19.05;;;13.48;;
28629;SDS011;15817;42.130;24.762;2023-02-28T15:06:39;18.73;;;13.75;;
28629;SDS011;15817;42.130;24.762;2023-02-28T15:09:07;16.85;;;13.90;;
28629;SDS011;15817;42.130;24.762;2023-02-28T15:11:34;18.27;;;13.48;;
28629;SDS011;15817;42.130;24.762;2023-02-28T15:14:03;19.17;;;14.43;;
28629;SDS011;15817;42.130;24.762;2023-02-28T15:16:36;21.27;;;15.20;;
28629;SDS011;15817;42.130;24.762;2023-02-28T15:19:17;20.02;;;14.90;;
28629;SDS011;15817;42.130;24.762;2023-02-28T15:21:55;20.75;;;15.48;;
28629;SDS011;15817;42.130;24.762;2023-02-28T15:27:22;26.98;;;20.38;;
28629;SDS011;15817;42.130;24.762;2023-02-28T15:29:57;20.83;;;16.33;;
28629;SDS011;15817;42.130;24.762;2023-02-28T15:32:33;21.55;;;16.08;;
28629;SDS011;15817;42.130;24.762;2023-02-28T15:38:26;24.25;;;16.33;;
28629;SDS011;15817;42.130;24.762;2023-02-28T15:40:54;21.15;;;14.82;;
28629;SDS011;15817;42.130;24.762;2023-02-28T15:43:36;19.08;;;14.23;;
28629;SDS011;15817;42.130;24.762;2023-02-28T15:46:12;18.67;;;13.68;;
28629;SDS011;15817;42.130;24.762;2023-02-28T15:48:53;17.25;;;13.05;;
28629;SDS011;15817;42.130;24.762;2023-02-28T15:51:22;21.10;;;13.93;;
28629;SDS011;15817;42.130;24.762;2023-02-28T15:53:57;19.23;;;13.88;;
28629;SDS011;15817;42.130;24.762;2023-02-28T15:56:35;20.67;;;13.27;;
28629;SDS011;15817;42.130;24.762;2023-02-28T15:59:19;22.27;;;14.60;;
28629;SDS011;15817;42.130;24.762;2023-02-28T16:08:11;25.73;;;15.65;;
28629;SDS011;15817;42.130;24.762;2023-02-28T16:11:12;24.23;;;17.13;;
28629;SDS011;15817;42.130;24.762;2023-02-28T16:13:44;23.88;;;16.90;;
28629;SDS011;15817;42.130;24.762;2023-02-28T16:16:52;25.05;;;16.70;;
28629;SDS011;15817;42.130;24.762;2023-02-28T16:20:12;23.83;;;16.30;;
28629;SDS011;15817;42.130;24.762;2023-02-28T16:22:51;19.80;;;15.27;;
28629;SDS011;15817;42.130;24.762;2023-02-28T16:25:32;21.63;;;15.52;;
28629;SDS011;15817;42.130;24.762;2023-02-28T16:29:00;24.20;;;15.60;;
28629;SDS011;15817;42.130;24.762;2023-02-28T16:31:22;19.90;;;14.63;;
28629;SDS011;15817;42.130;24.762;2023-02-28T16:33:53;19.92;;;13.60;;
28629;SDS011;15817;42.130;24.762;2023-02-28T16:39:08;18.83;;;13.15;;
28629;SDS011;15817;42.130;24.762;2023-02-28T16:41:49;22.58;;;14.27;;
28629;SDS011;15817;42.130;24.762;2023-02-28T16:47:08;23.92;;;15.48;;
28629;SDS011;15817;42.130;24.762;2023-02-28T16:49:54;18.42;;;14.02;;
28629;SDS011;15817;42.130;24.762;2023-02-28T16:59:47;15.98;;;11.68;;
28629;SDS011;15817;42.130;24.762;2023-02-28T17:24:44;14.25;;;11.00;;
28629;SDS011;15817;42.130;24.762;2023-02-28T17:27:50;14.95;;;11.32;;
28629;SDS011;15817;42.130;24.762;2023-02-28T17:30:31;13.93;;;10.55;;
28629;SDS011;15817;42.130;24.762;2023-02-28T17:37:04;11.95;;;8.55;;
28629;SDS011;15817;42.130;24.762;2023-02-28T17:53:30;9.93;;;6.68;;
28629;SDS011;15817;42.130;24.762;2023-02-28T18:07:02;7.82;;;5.80;;
28629;SDS011;15817;42.130;24.762;2023-02-28T18:44:47;9.20;;;6.78;;
28629;SDS011;15817;42.130;24.762;2023-02-28T18:47:21;7.78;;;6.28;;
28629;SDS011;15817;42.130;24.762;2023-02-28T18:50:04;7.53;;;6.07;;
28629;SDS011;15817;42.130;24.762;2023-02-28T18:53:06;10.05;;;6.75;;
28629;SDS011;15817;42.130;24.762;2023-02-28T18:56:05;8.75;;;6.93;;
28629;SDS011;15817;42.130;24.762;2023-02-28T18:58:53;8.75;;;6.55;;
28629;SDS011;15817;42.130;24.762;2023-02-28T19:01:41;7.35;;;6.30;;
28629;SDS011;15817;42.130;24.762;2023-02-28T19:20:01;8.77;;;5.50;;
28629;SDS011;15817;42.130;24.762;2023-02-28T19:22:51;7.25;;;4.63;;
28629;SDS011;15817;42.130;24.762;2023-02-28T19:25:38;6.70;;;3.45;;
28629;SDS011;15817;42.130;24.762;2023-02-28T19:28:54;4.20;;;3.17;;
28629;SDS011;15817;42.130;24.762;2023-02-28T19:31:32;6.20;;;2.97;;
28629;SDS011;15817;42.130;24.762;2023-02-28T19:34:16;3.90;;;3.20;;
28629;SDS011;15817;42.130;24.762;2023-02-28T19:37:02;4.65;;;2.95;;
28629;SDS011;15817;42.130;24.762;2023-02-28T19:39:44;4.60;;;2.80;;
28629;SDS011;15817;42.130;24.762;2023-02-28T19:42:21;4.60;;;2.80;;
28629;SDS011;15817;42.130;24.762;2023-02-28T19:44:55;3.47;;;2.63;;
28629;SDS011;15817;42.130;24.762;2023-02-28T19:47:35;4.82;;;3.00;;
28629;SDS011;15817;42.130;24.762;2023-02-28T19:50:06;3.78;;;2.60;;
28629;SDS011;15817;42.130;24.762;2023-02-28T19:53:02;3.33;;;2.70;;
28629;SDS011;15817;42.130;24.762;2023-02-28T19:55:42;3.40;;;2.58;;
28629;SDS011;15817;42.130;24.762;2023-02-28T19:58:13;4.32;;;2.90;;
28629;SDS011;15817;42.130;24.762;2023-02-28T20:00:42;3.90;;;2.97;;
28629;SDS011;15817;42.130;24.762;2023-02-28T20:03:11;3.35;;;3.05;;
28629;SDS011;15817;42.130;24.762;2023-02-28T20:06:08;4.88;;;3.40;;
28629;SDS011;15817;42.130;24.762;2023-02-28T20:08:52;3.58;;;2.90;;
28629;SDS011;15817;42.130;24.762;2023-02-28T20:11:27;4.43;;;3.38;;
28629;SDS011;15817;42.130;24.762;2023-02-28T20:19:30;3.95;;;3.22;;
28629;SDS011;15817;42.130;24.762;2023-02-28T20:22:05;4.10;;;3.30;;
28629;SDS011;15817;42.130;24.762;2023-02-28T20:28:19;5.03;;;3.67;;
28629;SDS011;15817;42.130;24.762;2023-02-28T20:34:01;5.75;;;3.85;;
28629;SDS011;15817;42.130;24.762;2023-02-28T20:36:27;6.13;;;4.07;;
28629;SDS011;15817;42.130;24.762;2023-02-28T20:39:00;4.72;;;3.78;;
28629;SDS011;15817;42.130;24.762;2023-02-28T20:44:32;6.03;;;4.60;;
28629;SDS011;15817;42.130;24.762;2023-02-28T20:47:10;5.50;;;4.28;;
28629;SDS011;15817;42.130;24.762;2023-02-28T20:49:36;6.05;;;4.75;;
28629;SDS011;15817;42.130;24.762;2023-02-28T20:52:08;4.97;;;3.72;;
28629;SDS011;15817;42.130;24.762;2023-02-28T20:57:28;3.78;;;3.45;;